createdAt,value
2024-05-09T00:01:48.095Z,13.15
2024-05-09T00:04:18.187Z,13.15
2024-05-09T00:06:48.173Z,13.28
2024-05-09T00:09:18.087Z,13.25
2024-05-09T00:11:48.281Z,13.08
2024-05-09T00:14:18.395Z,13.10
2024-05-09T00:16:49.539Z,13.06
2024-05-09T00:19:19.774Z,13.13
2024-05-09T00:21:49.836Z,13.06
2024-05-09T00:24:19.453Z,13.06
2024-05-09T00:26:49.757Z,12.95
2024-05-09T00:29:20.170Z,12.95
2024-05-09T00:31:50.305Z,13.09
2024-05-09T00:34:20.356Z,12.93
2024-05-09T00:36:50.982Z,12.97
2024-05-09T00:39:21.110Z,12.99
2024-05-09T00:41:51.194Z,12.96
2024-05-09T00:44:21.254Z,13.05
2024-05-09T00:46:52.873Z,12.94
2024-05-09T00:49:23.995Z,12.78
2024-05-09T00:51:57.056Z,12.83
2024-05-09T00:54:27.885Z,12.67
2024-05-09T00:56:58.081Z,12.58
2024-05-09T00:59:30.368Z,12.58
2024-05-09T01:02:01.478Z,12.55
2024-05-09T01:04:31.526Z,12.55
2024-05-09T01:07:02.079Z,12.55
2024-05-09T01:09:32.097Z,12.56
2024-05-09T01:12:02.312Z,12.70
2024-05-09T01:14:32.465Z,12.43
2024-05-09T01:17:02.552Z,12.28
2024-05-09T01:19:33.951Z,12.33
2024-05-09T01:22:07.634Z,12.33
2024-05-09T01:24:37.790Z,12.35
2024-05-09T01:27:07.943Z,12.29
2024-05-09T01:29:42.830Z,12.34
2024-05-09T01:32:13.573Z,12.27
2024-05-09T01:34:44.112Z,12.46
2024-05-09T01:37:15.412Z,12.34
2024-05-09T01:39:46.131Z,12.15
2024-05-09T01:42:17.324Z,12.21
2024-05-09T01:44:47.941Z,12.18
2024-05-09T01:47:18.239Z,12.19
2024-05-09T01:49:48.747Z,12.30
2024-05-09T01:52:19.164Z,12.10
2024-05-09T01:54:49.410Z,12.06
2024-05-09T01:57:19.343Z,12.12
2024-05-09T01:59:49.594Z,12.17
2024-05-09T02:02:19.518Z,12.01
2024-05-09T02:04:50.645Z,12.08
2024-05-09T02:07:23.870Z,12.13
2024-05-09T02:09:55.255Z,12.01
2024-05-09T02:12:26.926Z,12.00
2024-05-09T02:14:57.674Z,12.13
2024-05-09T02:17:29.986Z,12.17
2024-05-09T02:20:06.039Z,11.97
2024-05-09T02:22:38.788Z,11.83
2024-05-09T02:25:09.269Z,11.83
2024-05-09T02:27:44.002Z,11.83
2024-05-09T02:30:29.934Z,11.96
2024-05-09T02:32:56.227Z,12.01
2024-05-09T02:35:26.976Z,12.01
2024-05-09T02:38:01.076Z,12.15
2024-05-09T02:40:36.970Z,11.82
2024-05-09T02:43:04.671Z,11.79
2024-05-09T02:45:42.042Z,11.69
2024-05-09T02:48:13.628Z,11.70
2024-05-09T02:50:44.900Z,11.85
2024-05-09T02:53:15.960Z,12.03
2024-05-09T02:55:49.103Z,11.91
2024-05-09T02:58:19.384Z,11.90
2024-05-09T03:00:53.372Z,11.58
2024-05-09T03:03:28.779Z,11.51
2024-05-09T03:05:59.150Z,11.34
2024-05-09T03:08:29.677Z,11.33
2024-05-09T03:11:00.227Z,11.36
2024-05-09T03:13:30.851Z,11.42
2024-05-09T03:16:01.883Z,11.47
2024-05-09T03:18:34.516Z,11.44
2024-05-09T03:21:04.860Z,11.41
2024-05-09T03:23:36.728Z,11.49
2024-05-09T03:26:13.257Z,11.45
2024-05-09T03:28:45.378Z,11.57
2024-05-09T03:31:18.520Z,11.47
2024-05-09T03:33:48.784Z,11.52
2024-05-09T03:36:19.090Z,11.50
2024-05-09T03:38:51.419Z,11.23
2024-05-09T03:41:21.666Z,11.17
2024-05-09T03:43:52.086Z,11.27
2024-05-09T03:46:23.798Z,11.29
2024-05-09T03:48:54.117Z,11.26
2024-05-09T03:51:24.687Z,11.22
2024-05-09T03:53:55.250Z,11.30
2024-05-09T03:56:27.417Z,11.28
2024-05-09T03:59:00.240Z,11.33
2024-05-09T04:01:32.249Z,11.22
2024-05-09T04:04:03.376Z,11.26
2024-05-09T04:06:33.528Z,11.21
2024-05-09T04:09:05.095Z,11.20
2024-05-09T04:11:41.043Z,11.14
2024-05-09T04:14:16.294Z,11.27
2024-05-09T04:16:48.202Z,11.42
2024-05-09T04:19:24.977Z,11.16
2024-05-09T04:21:55.233Z,11.36
2024-05-09T04:24:27.083Z,11.28
2024-05-09T04:26:57.596Z,11.15
2024-05-09T04:29:29.794Z,11.13
2024-05-09T04:31:59.868Z,11.22
2024-05-09T04:34:34.026Z,11.27
2024-05-09T04:37:05.183Z,11.25
2024-05-09T04:39:35.733Z,11.30
2024-05-09T04:42:11.463Z,11.37
2024-05-09T04:44:44.263Z,11.57
2024-05-09T04:47:15.084Z,11.65
2024-05-09T04:49:46.839Z,11.69
2024-05-09T04:52:17.269Z,11.61
2024-05-09T04:54:47.852Z,11.66
2024-05-09T04:57:18.623Z,11.55
2024-05-09T04:59:52.422Z,11.62
2024-05-09T05:02:27.091Z,11.72
2024-05-09T05:04:59.433Z,11.68
2024-05-09T05:07:31.727Z,11.77
2024-05-09T05:10:03.280Z,11.75
2024-05-09T05:12:52.048Z,11.78
2024-05-09T05:15:23.793Z,11.77
2024-05-09T05:17:54.375Z,11.84
2024-05-09T05:20:33.041Z,12.14
2024-05-09T05:22:56.289Z,12.14
2024-05-09T05:25:26.358Z,11.94
2024-05-09T05:27:56.847Z,12.13
2024-05-09T05:30:32.499Z,12.23
2024-05-09T05:33:00.617Z,12.44
2024-05-09T05:35:35.656Z,12.77
2024-05-09T05:38:09.198Z,12.77
2024-05-09T05:40:42.991Z,12.84
2024-05-09T05:43:23.332Z,13.03
2024-05-09T05:48:22.112Z,13.27
2024-05-09T05:50:52.688Z,13.43
2024-05-09T05:53:24.292Z,13.38
2024-05-09T05:55:54.761Z,13.62
2024-05-09T05:58:26.646Z,13.55
2024-05-09T06:00:56.913Z,13.75
2024-05-09T06:03:31.788Z,13.91
2024-05-09T06:06:04.363Z,14.22
2024-05-09T06:08:34.843Z,14.18
2024-05-09T06:11:05.486Z,14.69
2024-05-09T06:13:35.598Z,14.69
2024-05-09T06:16:07.452Z,14.89
2024-05-09T06:18:37.705Z,14.98
2024-05-09T06:21:08.707Z,14.98
2024-05-09T06:23:51.198Z,15.12
2024-05-09T06:26:21.567Z,15.44
2024-05-09T06:28:57.513Z,15.44
2024-05-09T06:31:27.653Z,15.32
2024-05-09T06:33:58.818Z,15.61
2024-05-09T06:36:28.716Z,15.61
2024-05-09T06:38:58.919Z,15.76
2024-05-09T06:41:29.845Z,16.04
2024-05-09T06:44:00.366Z,16.00
2024-05-09T06:46:36.474Z,16.11
2024-05-09T06:49:08.937Z,16.26
2024-05-09T06:51:43.095Z,16.38
2024-05-09T06:54:13.522Z,16.35
2024-05-09T06:56:44.541Z,17.06
2024-05-09T06:59:16.266Z,17.06
2024-05-09T07:01:46.724Z,17.29
2024-05-09T07:04:17.140Z,17.15
2024-05-09T07:06:53.238Z,17.39
2024-05-09T07:09:23.528Z,17.50
2024-05-09T07:11:56.804Z,18.03
2024-05-09T07:14:27.213Z,18.16
2024-05-09T07:17:03.811Z,18.51
2024-05-09T07:19:37.219Z,18.15
2024-05-09T07:22:11.867Z,18.56
2024-05-09T07:24:42.344Z,18.89
2024-05-09T07:27:14.185Z,19.26
2024-05-09T07:29:47.416Z,19.43
2024-05-09T07:32:28.740Z,19.30
2024-05-09T07:34:55.294Z,19.85
2024-05-09T07:37:25.450Z,19.85
2024-05-09T07:39:58.171Z,19.84
2024-05-09T07:42:27.962Z,19.18
2024-05-09T07:45:14.857Z,19.92
2024-05-09T07:48:57.523Z,19.92
2024-05-09T07:52:00.963Z,20.29
2024-05-09T07:53:33.464Z,20.66
2024-05-09T07:55:09.780Z,20.77
2024-05-09T07:57:42.916Z,20.60
2024-05-09T08:00:20.238Z,20.49
2024-05-09T08:02:46.545Z,21.06
2024-05-09T08:05:16.889Z,21.21
2024-05-09T08:07:47.518Z,20.92
2024-05-09T08:10:22.231Z,21.42
2024-05-09T08:12:49.887Z,21.73
2024-05-09T08:15:20.210Z,21.88
2024-05-09T08:17:53.489Z,21.59
2024-05-09T08:20:30.955Z,21.78
2024-05-09T08:22:55.464Z,21.75
2024-05-09T08:25:25.718Z,21.88
2024-05-09T08:28:01.062Z,22.11
2024-05-09T08:30:37.181Z,21.97
2024-05-09T08:33:07.791Z,22.06
2024-05-09T08:35:38.611Z,22.52
2024-05-09T08:38:09.978Z,22.48
2024-05-09T08:40:40.228Z,22.48
2024-05-09T08:43:13.069Z,22.61
2024-05-09T08:45:45.292Z,22.61
2024-05-09T08:48:17.102Z,23.04
2024-05-09T08:50:48.536Z,23.64
2024-05-09T08:53:19.424Z,22.76
2024-05-09T08:55:52.023Z,22.76
2024-05-09T08:58:22.590Z,23.16
2024-05-09T09:00:53.561Z,23.16
2024-05-09T09:03:27.673Z,23.60
2024-05-09T09:06:06.285Z,24.02
2024-05-09T09:08:37.800Z,24.14
2024-05-09T09:11:08.490Z,23.74
2024-05-09T09:13:39.220Z,23.00
2024-05-09T09:16:12.866Z,23.00
2024-05-09T09:18:46.280Z,22.86
2024-05-09T09:21:16.454Z,23.94
2024-05-09T09:23:46.620Z,24.65
2024-05-09T09:26:19.741Z,23.44
2024-05-09T09:28:50.109Z,23.22
2024-05-09T09:31:20.924Z,24.11
2024-05-09T09:33:51.152Z,24.53
2024-05-09T09:36:21.609Z,24.87
2024-05-09T09:38:53.437Z,24.91
2024-05-09T09:41:26.713Z,23.51
2024-05-09T09:43:58.733Z,23.51
2024-05-09T09:46:30.237Z,22.47
2024-05-09T09:49:01.363Z,22.02
2024-05-09T09:51:33.507Z,22.26
2024-05-09T09:54:06.892Z,22.17
2024-05-09T09:56:39.619Z,22.33
2024-05-09T09:59:10.452Z,22.10
2024-05-09T10:01:41.017Z,22.86
2024-05-09T10:04:16.079Z,24.19
2024-05-09T10:06:52.165Z,24.19
2024-05-09T10:09:22.666Z,24.71
2024-05-09T10:11:59.726Z,25.11
2024-05-09T10:14:24.901Z,25.03
2024-05-09T10:16:58.105Z,24.46
2024-05-09T10:19:29.046Z,24.40
2024-05-09T10:22:06.136Z,24.31
2024-05-09T10:24:50.201Z,23.85
2024-05-09T10:27:30.879Z,23.87
2024-05-09T10:30:06.908Z,24.47
2024-05-09T10:32:42.706Z,24.49
2024-05-09T10:35:15.129Z,24.49
2024-05-09T10:37:47.389Z,24.65
2024-05-09T10:40:25.892Z,24.63
2024-05-09T10:42:51.033Z,23.73
2024-05-09T10:45:21.673Z,23.73
2024-05-09T10:47:52.255Z,23.51
2024-05-09T10:50:28.360Z,23.62
2024-05-09T10:52:55.007Z,23.75
2024-05-09T10:55:25.230Z,25.43
2024-05-09T10:57:55.496Z,25.43
2024-05-09T11:00:36.097Z,25.88
2024-05-09T11:03:04.257Z,23.91
2024-05-09T11:05:35.081Z,23.91
2024-05-09T11:08:06.862Z,24.28
2024-05-09T11:10:37.439Z,24.75
2024-05-09T11:13:07.940Z,24.98
2024-05-09T11:15:41.320Z,25.09
2024-05-09T11:18:15.464Z,25.55
2024-05-09T11:20:45.636Z,25.38
2024-05-09T11:23:15.999Z,25.64
2024-05-09T11:25:58.330Z,26.18
2024-05-09T11:28:29.243Z,25.65
2024-05-09T11:31:10.475Z,25.65
2024-05-09T11:33:43.200Z,26.80
2024-05-09T11:36:14.156Z,25.88
2024-05-09T11:38:44.263Z,25.39
2024-05-09T11:41:20.312Z,24.94
2024-05-09T11:43:50.620Z,24.21
2024-05-09T11:46:20.758Z,24.26
2024-05-09T11:48:51.101Z,24.26
2024-05-09T11:51:21.415Z,24.60
2024-05-09T11:53:51.477Z,23.94
2024-05-09T11:56:22.164Z,24.06
2024-05-09T11:58:52.165Z,23.91
2024-05-09T12:01:25.109Z,24.52
2024-05-09T12:03:55.216Z,24.50
2024-05-09T12:06:25.506Z,24.50
2024-05-09T12:08:56.506Z,24.86
2024-05-09T12:11:26.620Z,25.11
2024-05-09T12:13:56.302Z,24.96
2024-05-09T12:16:26.822Z,24.96
2024-05-09T12:18:57.131Z,24.94
2024-05-09T12:21:27.408Z,24.95
2024-05-09T12:23:57.989Z,25.25
2024-05-09T12:26:28.489Z,25.47
2024-05-09T12:28:58.414Z,25.23
2024-05-09T12:31:28.644Z,25.02
2024-05-09T12:34:00.120Z,24.82
2024-05-09T12:36:31.409Z,25.07
2024-05-09T12:39:01.550Z,25.45
2024-05-09T12:41:31.462Z,25.43
2024-05-09T12:44:01.481Z,25.54
2024-05-09T12:46:31.917Z,25.54
2024-05-09T12:49:02.068Z,25.47
2024-05-09T12:51:32.322Z,25.04
2024-05-09T12:54:02.319Z,25.06
2024-05-09T12:56:33.456Z,25.41
2024-05-09T12:59:03.487Z,25.59
2024-05-09T13:01:33.660Z,25.70
2024-05-09T13:04:03.481Z,25.59
2024-05-09T13:06:33.539Z,25.70
2024-05-09T13:09:03.844Z,25.69
2024-05-09T13:11:33.931Z,25.69
2024-05-09T13:14:05.353Z,26.43
2024-05-09T13:16:35.426Z,26.81
2024-05-09T13:19:05.558Z,26.08
2024-05-09T13:21:35.835Z,26.08
2024-05-09T13:24:08.386Z,26.44
2024-05-09T13:26:38.425Z,26.22
2024-05-09T13:29:08.315Z,25.84
2024-05-09T13:31:38.329Z,24.86
2024-05-09T13:34:09.736Z,24.58
2024-05-09T13:36:40.462Z,24.89
2024-05-09T13:39:10.817Z,24.89
2024-05-09T13:41:40.970Z,24.88
2024-05-09T13:44:11.642Z,25.02
2024-05-09T13:46:41.486Z,24.56
2024-05-09T13:49:13.323Z,24.56
2024-05-09T13:51:43.797Z,24.55
2024-05-09T13:54:13.839Z,24.55
2024-05-09T13:56:43.850Z,24.70
2024-05-09T13:59:13.958Z,24.47
2024-05-09T14:01:44.069Z,24.74
2024-05-09T14:04:14.432Z,24.91
2024-05-09T14:06:45.146Z,24.66
2024-05-09T14:09:15.325Z,24.58
2024-05-09T14:11:45.478Z,24.39
2024-05-09T14:14:15.400Z,24.46
2024-05-09T14:16:45.507Z,24.16
2024-05-09T14:19:15.652Z,24.31
2024-05-09T14:21:45.698Z,24.37
2024-05-09T14:24:15.493Z,24.43
2024-05-09T14:26:46.085Z,24.24
2024-05-09T14:29:16.086Z,24.04
2024-05-09T14:31:46.318Z,24.07
2024-05-09T14:34:16.021Z,24.39
2024-05-09T14:36:46.236Z,24.16
2024-05-09T14:39:16.399Z,24.24
2024-05-09T14:41:46.997Z,23.96
2024-05-09T14:44:17.139Z,24.15
2024-05-09T14:46:47.148Z,24.15
2024-05-09T14:49:17.122Z,24.42
2024-05-09T14:51:49.401Z,24.45
2024-05-09T14:54:19.051Z,24.09
2024-05-09T14:56:49.203Z,24.11
2024-05-09T14:59:19.578Z,23.97
2024-05-09T15:01:49.486Z,23.48
2024-05-09T15:04:19.747Z,23.65
2024-05-09T15:06:50.246Z,23.52
2024-05-09T15:09:20.302Z,23.55
2024-05-09T15:11:50.232Z,22.75
2024-05-09T15:14:20.282Z,23.41
2024-05-09T15:16:50.527Z,23.36
2024-05-09T15:19:20.628Z,22.81
2024-05-09T15:21:50.711Z,23.02
2024-05-09T15:24:20.762Z,23.14
2024-05-09T15:26:51.361Z,23.36
2024-05-09T15:29:21.416Z,23.16
2024-05-09T15:31:51.489Z,23.19
2024-05-09T15:34:21.461Z,23.22
2024-05-09T15:36:51.862Z,23.22
2024-05-09T15:39:23.417Z,23.14
2024-05-09T15:41:54.986Z,23.32
2024-05-09T15:44:26.636Z,23.25
2024-05-09T15:46:56.584Z,23.96
2024-05-09T15:49:26.674Z,23.90
2024-05-09T15:51:56.882Z,24.77
2024-05-09T15:54:27.514Z,25.04
2024-05-09T15:56:57.535Z,25.22
2024-05-09T15:59:27.499Z,25.13
2024-05-09T16:01:57.425Z,25.20
2024-05-09T16:04:27.738Z,25.93
2024-05-09T16:06:58.047Z,25.98
2024-05-09T16:09:28.036Z,26.03
2024-05-09T16:11:57.764Z,25.74
2024-05-09T16:14:27.562Z,25.34
2024-05-09T16:16:57.556Z,25.09
2024-05-09T16:19:27.560Z,25.53
2024-05-09T16:21:58.171Z,25.76
2024-05-09T16:24:27.928Z,25.76
2024-05-09T16:26:58.150Z,26.02
2024-05-09T16:29:28.073Z,26.41
2024-05-09T16:31:58.008Z,25.39
2024-05-09T16:34:29.465Z,25.58
2024-05-09T16:37:00.182Z,25.60
2024-05-09T16:39:30.175Z,25.78
2024-05-09T16:41:59.914Z,26.39
2024-05-09T16:44:31.016Z,26.39
2024-05-09T16:47:01.225Z,26.20
2024-05-09T16:49:31.215Z,26.00
2024-05-09T16:52:00.934Z,25.92
2024-05-09T16:54:30.828Z,26.18
2024-05-09T16:57:00.820Z,26.01
2024-05-09T16:59:31.014Z,25.64
2024-05-09T17:02:03.594Z,25.51
2024-05-09T17:04:33.820Z,25.86
2024-05-09T17:07:03.940Z,25.88
2024-05-09T17:09:33.547Z,25.70
2024-05-09T17:12:03.313Z,25.08
2024-05-09T17:14:33.293Z,25.08
2024-05-09T17:17:03.705Z,25.37
2024-05-09T17:19:33.687Z,25.01
2024-05-09T17:22:03.692Z,24.58
2024-05-09T17:24:33.623Z,24.58
2024-05-09T17:27:03.700Z,23.71
2024-05-09T17:29:33.791Z,24.11
2024-05-09T17:32:03.797Z,24.66
2024-05-09T17:34:33.654Z,26.77
2024-05-09T17:37:03.850Z,26.77
2024-05-09T17:39:34.124Z,27.08
2024-05-09T17:42:04.029Z,26.71
2024-05-09T17:44:33.923Z,28.14
2024-05-09T17:47:04.673Z,28.71
2024-05-09T17:49:34.676Z,29.22
2024-05-09T17:52:07.809Z,29.25
2024-05-09T17:54:38.130Z,29.09
2024-05-09T17:57:09.479Z,26.91
2024-05-09T17:59:39.749Z,26.27
2024-05-09T18:02:11.816Z,24.63
2024-05-09T18:04:41.635Z,23.39
2024-05-09T18:07:12.032Z,23.39
2024-05-09T18:09:44.116Z,23.13
2024-05-09T18:12:15.808Z,22.69
2024-05-09T18:14:45.674Z,22.60
2024-05-09T18:17:15.676Z,22.27
2024-05-09T18:19:46.115Z,21.91
2024-05-09T18:22:16.256Z,22.03
2024-05-09T18:24:46.614Z,22.17
2024-05-09T18:27:16.871Z,22.02
2024-05-09T18:29:46.830Z,21.93
2024-05-09T18:32:16.913Z,21.93
2024-05-09T18:34:46.952Z,21.88
2024-05-09T18:37:17.192Z,21.66
2024-05-09T18:39:47.375Z,21.57
2024-05-09T18:42:16.951Z,21.53
2024-05-09T18:44:47.014Z,21.53
2024-05-09T18:47:20.105Z,21.53
2024-05-09T18:49:49.170Z,21.28
2024-05-09T18:52:18.850Z,21.14
2024-05-09T18:54:48.877Z,21.27
2024-05-09T18:57:18.545Z,21.02
2024-05-09T18:59:48.461Z,20.71
2024-05-09T19:02:18.586Z,20.48
2024-05-09T19:04:49.583Z,20.35
2024-05-09T19:07:19.871Z,20.43
2024-05-09T19:09:50.050Z,20.26
2024-05-09T19:12:19.703Z,20.13
2024-05-09T19:14:49.592Z,19.87
2024-05-09T19:17:19.626Z,19.69
2024-05-09T19:19:51.577Z,19.84
2024-05-09T19:22:21.472Z,19.75
2024-05-09T19:24:51.798Z,19.75
2024-05-09T19:27:21.803Z,19.92
2024-05-09T19:29:53.400Z,19.77
2024-05-09T19:32:23.094Z,19.65
2024-05-09T19:34:52.930Z,19.52
2024-05-09T19:37:22.926Z,19.53
2024-05-09T19:39:52.872Z,19.41
2024-05-09T19:42:22.844Z,19.24
2024-05-09T19:44:52.771Z,19.18
2024-05-09T19:47:22.857Z,19.16
2024-05-09T19:49:53.096Z,18.99
2024-05-09T19:52:23.132Z,18.78
2024-05-09T19:54:53.062Z,18.83
2024-05-09T19:57:23.010Z,19.02
2024-05-09T19:59:52.912Z,18.86
2024-05-09T20:02:23.047Z,18.91
2024-05-09T20:04:53.480Z,18.68
2024-05-09T20:07:23.418Z,18.58
2024-05-09T20:09:53.301Z,18.57
2024-05-09T20:12:23.263Z,18.67
2024-05-09T20:14:52.898Z,18.67
2024-05-09T20:17:22.781Z,18.49
2024-05-09T20:19:52.936Z,18.59
2024-05-09T20:22:22.691Z,18.38
2024-05-09T20:24:52.681Z,18.36
2024-05-09T20:27:22.582Z,18.34
2024-05-09T20:29:52.594Z,18.39
2024-05-09T20:32:22.658Z,18.29
2024-05-09T20:34:52.637Z,18.37
2024-05-09T20:37:22.976Z,18.26
2024-05-09T20:39:52.914Z,18.26
2024-05-09T20:42:22.864Z,18.21
2024-05-09T20:44:53.083Z,18.33
2024-05-09T20:47:23.015Z,18.28
2024-05-09T20:49:53.064Z,18.30
2024-05-09T20:52:22.884Z,18.29
2024-05-09T20:54:53.062Z,18.39
2024-05-09T20:57:23.157Z,18.28
2024-05-09T20:59:53.338Z,18.36
2024-05-09T21:02:23.391Z,18.28
2024-05-09T21:04:53.693Z,18.34
2024-05-09T21:07:23.772Z,18.27
2024-05-09T21:09:53.812Z,18.15
2024-05-09T21:12:23.376Z,18.27
2024-05-09T21:14:53.275Z,18.19
2024-05-09T21:17:23.395Z,18.11
2024-05-09T21:19:53.609Z,18.18
2024-05-09T21:22:23.233Z,18.46
2024-05-09T21:24:52.883Z,18.28
2024-05-09T21:27:24.390Z,18.43
2024-05-09T21:29:54.237Z,18.23
2024-05-09T21:32:24.209Z,18.23
2024-05-09T21:34:54.598Z,18.19
2024-05-09T21:37:24.621Z,18.09
2024-05-09T21:39:54.819Z,18.09
2024-05-09T21:42:24.818Z,18.23
2024-05-09T21:44:55.064Z,18.01
2024-05-09T21:47:25.261Z,18.10
2024-05-09T21:49:55.398Z,18.12
2024-05-09T21:52:25.427Z,17.97
2024-05-09T21:54:55.617Z,17.72
2024-05-09T21:57:25.385Z,17.72
2024-05-09T21:59:55.385Z,17.90
2024-05-09T22:02:25.651Z,17.90
2024-05-09T22:04:55.951Z,17.92
2024-05-09T22:07:26.311Z,17.92
2024-05-09T22:09:56.261Z,17.91
2024-05-09T22:12:25.861Z,17.91
2024-05-09T22:14:55.864Z,18.00
2024-05-09T22:17:25.892Z,17.95
2024-05-09T22:19:55.882Z,18.09
2024-05-09T22:22:26.738Z,18.12
2024-05-09T22:24:57.116Z,18.09
2024-05-09T22:27:27.207Z,17.70
2024-05-09T22:29:57.177Z,17.71
2024-05-09T22:32:27.216Z,17.79
2024-05-09T22:34:57.228Z,17.72
2024-05-09T22:37:27.196Z,17.72
2024-05-09T22:39:57.411Z,17.63
2024-05-09T22:42:28.388Z,17.69
2024-05-09T22:44:58.360Z,17.75
2024-05-09T22:47:28.289Z,17.75
2024-05-09T22:49:58.457Z,17.68
2024-05-09T22:52:28.402Z,17.68
2024-05-09T22:54:58.335Z,17.73
2024-05-09T22:57:28.723Z,17.60
2024-05-09T22:59:58.723Z,17.44
2024-05-09T23:02:28.741Z,17.44
2024-05-09T23:04:59.034Z,17.72
2024-05-09T23:07:28.987Z,17.55
2024-05-09T23:09:58.910Z,17.49
2024-05-09T23:12:28.876Z,17.49
2024-05-09T23:14:59.155Z,17.78
2024-05-09T23:17:28.996Z,17.78
2024-05-09T23:19:58.972Z,17.53
2024-05-09T23:22:28.879Z,17.53
2024-05-09T23:24:59.153Z,17.54
2024-05-09T23:27:29.065Z,17.54
2024-05-09T23:29:59.037Z,17.57
2024-05-09T23:32:29.224Z,17.40
2024-05-09T23:34:59.305Z,17.31
2024-05-09T23:37:29.288Z,17.31
2024-05-09T23:39:59.278Z,17.16
2024-05-09T23:42:29.350Z,17.16
2024-05-09T23:44:59.211Z,17.14
2024-05-09T23:47:28.975Z,17.14
2024-05-09T23:49:59.275Z,16.95
2024-05-09T23:52:29.360Z,16.95
2024-05-09T23:54:59.467Z,17.09
2024-05-09T23:57:29.341Z,17.09
